Terminal Aerodrome Forecast
Issued by NWS Upton, NY

Home | Current Version | Previous Version | Text Only | Print | Product List | Glossary On
Versions: 1 2 3 4 5 6 7 8 9 10 11 12 13 14 15 16 17 18 19 20 21 22 23 24 25 26 27 28
000
FTUS41 KOKX 022338
TAFEWR
TAF
KEWR 022338Z 0300/0406 18006KT P6SM FEW040 SCT250
     FM030300 VRB05KT P6SM SKC
      TEMPO 0311/0313 5SM HZ
     FM031400 01005KT P6SM FEW060
     FM032000 13007KT P6SM SCT060
     FM040100 VRB05KT P6SM BKN050=

USA.gov is the U.S. government's official web portal to all federal, state and local government web resources and services.